• Join FlightAware (Why Join?)
  • Login
  • US Flag 
11:34AM EDT


 

Airport Tracker/Info


-or-


 

Live Flight TrackerFlight Track Log ✈ UAL1053 ✈ 22-Apr-2013 ✈ KRSW - KEWR

Flight Track Log - Related Links

Times and Time Zones

All times are in EDT time to prevent confusion due to time zone crossing. See the UAL1053 flight status page for this flight to view local times or setup timezone preferences in your user account.

Time Position Orientation Groundspeed Altitude Reporting Facility
EDT Latitude Longitude Course Direction KTS MPH feet Rate Location/Type
02:29PM 26.5636 -81.5828 342° North 273 314 6,400  Level Miami Center
02:30PM 26.5708 -81.4881 85° East 286 329 9,100 1,560 Climbing Miami Center
02:31PM 27.0089 -81.7333 North  Level FlightAware Approximate
02:32PM 27.1211 -81.7772 336° Northwest  Level FlightAware Approximate
02:33PM 27.2364 -81.8104 346° North  Level FlightAware Approximate
02:34PM 27.3473 -81.8528 350° North  Level FlightAware Approximate
02:35PM 27.4631 -81.8840 342° North  Level FlightAware Approximate
02:37PM 26.9520 -81.5050 85° East 365 420 17,800  Level FlightAware
02:38PM 27.0880 -81.5650 339° North 363 418 19,700 1,680 Climbing FlightAware
02:39PM 27.2010 -81.6240 335° Northwest 388 447 22,200 1,980 Climbing FlightAware
02:42PM 27.4460 -81.7490 336° Northwest 404 465 26,900 1,740 Climbing FlightAware
02:43PM 27.5920 -81.7190 10° North 446 513 28,700 1,320 Climbing FlightAware
02:44PM 27.7450 -81.6590 19° North 460 529 30,300 1,440 Climbing FlightAware
02:45PM 27.8880 -81.6010 20° North 464 534 32,200 1,560 Climbing FlightAware
02:46PM 27.9790 -81.5640 20° North 461 531 33,300 1,380 Climbing FlightAware
02:47PM 28.0660 -81.5290 20° North 461 531 34,200 1,260 Climbing FlightAware
02:47PM 28.1560 -81.4930 19° North 460 529 35,100 1,260 Climbing FlightAware
02:48PM 28.2390 -81.4590 20° North 458 527 36,000 1,080 Climbing FlightAware
02:49PM 28.3150 -81.4280 20° North 458 527 36,600 660 Climbing FlightAware
02:49PM 28.4080 -81.3900 20° North 460 529 37,000 300 Climbing FlightAware
02:50PM 28.4630 -81.3680 19° North 461 531 37,000  Level FlightAware
02:52PM 28.7630 -81.3560 North 432 497 37,000  Level FlightAware
02:56PM 29.2060 -81.3990 355° North 437 503 37,000  Level FlightAware
02:58PM 29.4800 -81.4260 355° North 448 516 37,000  Level FlightAware
02:59PM 29.6190 -81.4390 355° North 448 516 37,000  Level FlightAware
03:00PM 29.7110 -81.4490 355° North 439 505 37,000  Level FlightAware
03:01PM 29.7800 -81.4570 354° North 439 505 37,000  Level FlightAware
03:01PM 29.8480 -81.4660 353° North 439 505 37,000  Level FlightAware
03:02PM 29.9170 -81.4740 354° North 439 505 37,000  Level FlightAware
03:03PM 30.0030 -81.4850 354° North 439 505 37,000  Level FlightAware
03:04PM 30.0710 -81.4930 354° North 439 505 37,000  Level FlightAware
03:04PM 30.2290 -81.4990 358° North 452 520 37,000  Level FlightAware
03:05PM 30.3000 -81.5060 355° North 452 520 37,000  Level FlightAware
03:06PM 30.3700 -81.5140 354° North 452 520 37,000  Level FlightAware
03:06PM 30.4590 -81.5230 355° North 452 520 37,000  Level FlightAware
03:07PM 30.5300 -81.5300 355° North 452 520 37,000  Level FlightAware
03:08PM 30.6010 -81.5370 355° North 452 520 37,000  Level FlightAware
03:08PM 30.6710 -81.5440 355° North 452 520 37,000  Level FlightAware
03:09PM 30.7600 -81.5530 355° North 452 520 37,000  Level FlightAware
03:10PM 30.8310 -81.5600 355° North 452 520 37,000  Level FlightAware
03:11PM 30.9020 -81.5680 354° North 452 520 37,000  Level FlightAware
03:11PM 30.9720 -81.5750 355° North 452 520 37,000  Level FlightAware
03:12PM 31.0430 -81.5820 355° North 452 520 37,000  Level FlightAware
03:13PM 31.1320 -81.5910 355° North 452 520 37,000  Level FlightAware
03:13PM 31.2030 -81.5980 355° North 452 520 37,000  Level FlightAware
03:16PM 31.6850 -81.3220 26° Northeast 465 535 37,000  Level FlightAware
03:17PM 31.8030 -81.2900 13° North 464 534 37,000  Level FlightAware
03:18PM 31.8730 -81.2720 12° North 464 534 37,000  Level FlightAware
03:19PM 31.9700 -81.2460 13° North 463 533 37,000  Level FlightAware
03:20PM 32.1130 -81.2070 13° North 464 534 37,000  Level FlightAware
03:20PM 32.1800 -81.1740 23° Northeast 469 540 37,000  Level FlightAware
03:21PM 32.2500 -81.1250 31° Northeast 471 542 37,000  Level FlightAware
03:22PM 32.3550 -81.0490 31° Northeast 472 543 37,000  Level FlightAware
03:22PM 32.4350 -80.9910 31° Northeast 473 544 37,000 -120 Level FlightAware
03:23PM 32.5703 -80.8933 31° Northeast 468 539 36,900 -60 Descending Jacksonville Center
03:24PM 32.6839 -80.8119 31° Northeast 468 539 36,900  Level Jacksonville Center
03:25PM 32.7972 -80.7303 31° Northeast 468 539 36,900  Level Jacksonville Center
03:26PM 32.9086 -80.6483 32° Northeast 463 533 36,900  Level Jacksonville Center
03:27PM 33.0239 -80.5661 31° Northeast 469 540 36,900  Level Jacksonville Center
03:28PM 33.1392 -80.4814 32° Northeast 469 540 36,900  Level Jacksonville Center
03:29PM 33.2669 -80.3883 31° Northeast 475 547 36,900  Level Jacksonville Center
03:35PM 33.9060 -79.9050 31° Northeast 492 566 37,000  Climbing FlightAware
03:36PM 33.9790 -79.8490 32° Northeast 494 568 37,000  Level FlightAware
03:37PM 33.9800 -79.8490 360° North 496 571 37,000  Level FlightAware
03:37PM 34.0460 -79.7990 32° Northeast 496 571 37,000  Level FlightAware
03:38PM 34.1120 -79.7490 32° Northeast 496 571 37,000  Level FlightAware
03:39PM 33.9640 -79.8610 212° Southwest 504 580 37,000  Level FlightAware
03:39PM 34.4630 -79.5880 24° Northeast 504 580 37,000  Level FlightAware
03:40PM 34.5300 -79.5370 32° Northeast 504 580 37,000  Level FlightAware
03:41PM 34.5970 -79.4860 32° Northeast 504 580 37,000  Level FlightAware
03:41PM 34.6640 -79.4350 32° Northeast 504 580 37,000  Level FlightAware
03:42PM 34.7320 -79.3840 32° Northeast 504 580 37,000  Level FlightAware
03:43PM 34.8160 -79.3200 32° Northeast 504 580 37,000  Level FlightAware
03:44PM 35.0090 -79.3120 North 511 588 37,000  Level FlightAware
03:44PM 35.0820 -79.2710 25° Northeast 511 588 37,000  Level FlightAware
03:45PM 35.1550 -79.2290 25° Northeast 511 588 37,000  Level FlightAware
03:46PM 35.2850 -79.1540 25° Northeast 517 595 37,000  Level FlightAware
03:46PM 35.3570 -79.1130 25° Northeast 518 596 37,000  Level FlightAware
03:47PM 35.4650 -79.0510 25° Northeast 518 596 37,000  Level FlightAware
03:48PM 35.5570 -78.9980 25° Northeast 519 597 37,000  Level FlightAware
03:49PM 35.6520 -78.9430 25° Northeast 513 590 37,000  Level FlightAware
03:49PM 35.7400 -78.8920 25° Northeast 513 590 37,000  Level FlightAware
03:50PM 35.8410 -78.8340 25° Northeast 514 592 37,000  Level FlightAware
03:51PM 35.9280 -78.7830 25° Northeast 516 594 37,000  Level FlightAware
03:51PM 36.0160 -78.7320 25° Northeast 516 594 37,000  Level FlightAware
03:52PM 36.1140 -78.6740 26° Northeast 517 595 37,000  Level FlightAware
03:53PM 36.1980 -78.6250 25° Northeast 517 595 37,000  Level FlightAware
03:53PM 36.3000 -78.5650 25° Northeast 518 596 37,000  Level FlightAware
03:54PM 36.3860 -78.5140 26° Northeast 518 596 37,000  Level FlightAware
03:55PM 36.4830 -78.4570 25° Northeast 521 600 37,000  Level FlightAware
03:56PM 36.5930 -78.3920 25° Northeast 520 598 37,000  Level FlightAware
03:57PM 36.7040 -78.3250 26° Northeast 37,000  Level FlightAware
04:01PM 37.3330 -77.9480 25° Northeast 520 598 37,000  Level FlightAware
04:02PM 37.4000 -77.9070 26° Northeast 521 600 37,000  Level FlightAware
04:03PM 37.5150 -77.8360 26° Northeast 523 602 37,000  Level FlightAware
04:03PM 37.5940 -77.7690 34° Northeast 523 602 37,000  Level FlightAware
04:04PM 37.6750 -77.6950 36° Northeast 525 604 37,000  Level FlightAware
04:05PM 37.7630 -77.6160 35° Northeast 527 606 37,000  Level FlightAware
04:06PM 37.8430 -77.5440 35° Northeast 528 608 37,000  Level FlightAware
04:06PM 37.8893 -77.5009 36° Northeast 528 608 37,000  Level FlightAware ADS-B
04:06PM 37.9484 -77.4468 36° Northeast 528 608 37,000  Level FlightAware ADS-B
04:07PM 38.0154 -77.3855 36° Northeast 529 609 37,000  Level FlightAware ADS-B
04:07PM 38.0817 -77.3247 36° Northeast 530 610 37,000  Level FlightAware ADS-B
04:08PM 38.1485 -77.2633 36° Northeast 530 610 37,000  Level FlightAware ADS-B
04:09PM 38.2100 -77.2060 36° Northeast 525 604 37,000  Level FlightAware
04:09PM 38.2730 -77.1490 35° Northeast 532 612 37,000  Level FlightAware
04:10PM 38.3470 -77.0800 36° Northeast 533 613 37,000  Level FlightAware
04:11PM 38.4520 -76.9830 36° Northeast 535 616 37,000  Level FlightAware
04:11PM 38.4921 -76.9547 29° Northeast 531 611 37,000  Level FlightAware ADS-B
04:12PM 38.5886 -76.9288 12° North 512 589 37,000  Level FlightAware ADS-B
04:12PM 38.6048 -76.9293 359° North 507 583 37,000  Level FlightAware ADS-B
04:12PM 38.6757 -76.9331 358° North 502 578 37,000  Level FlightAware ADS-B
04:13PM 38.7493 -76.9370 358° North 499 574 37,000  Level FlightAware ADS-B
04:13PM 38.8208 -76.9392 359° North 500 575 37,000  Level FlightAware ADS-B
04:13PM 38.8430 -76.9338 11° North 517 595 37,000  Level FlightAware ADS-B
04:14PM 38.8785 -76.9133 24° Northeast 528 608 37,000  Level FlightAware ADS-B
04:14PM 38.9129 -76.8764 40° Northeast 529 609 37,000  Level FlightAware ADS-B
04:14PM 38.9375 -76.8300 56° Northeast 523 602 37,000  Level FlightAware ADS-B
04:15PM 38.9509 -76.7833 70° East 507 583 37,000  Level FlightAware ADS-B
04:15PM 38.9682 -76.6906 76° East 506 582 37,000 -1,020 Level FlightAware ADS-B
04:16PM 38.9870 -76.5921 76° East 510 587 35,900 -2,400 Descending FlightAware ADS-B
04:16PM 39.0042 -76.5002 76° East 509 586 34,400 -2,940 Descending FlightAware ADS-B
04:17PM 39.0187 -76.4264 76° East 515 593 33,200 -2,880 Descending FlightAware ADS-B
04:17PM 39.0283 -76.3965 68° East 523 602 32,700 -2,880 Descending FlightAware ADS-B
04:17PM 39.0403 -76.3694 60° Northeast 528 608 32,200 -3,000 Descending FlightAware ADS-B
04:17PM 39.0518 -76.3486 55° Northeast 533 613 31,800 -3,180 Descending FlightAware ADS-B
04:17PM 39.0737 -76.3184 47° Northeast 535 616 31,100 -2,700 Descending FlightAware ADS-B
04:18PM 39.1359 -76.2461 42° Northeast 529 609 29,700 -2,460 Descending FlightAware ADS-B
04:18PM 39.1898 -76.1829 42° Northeast 518 596 28,500 -2,340 Descending FlightAware ADS-B
04:19PM 39.2430 -76.1204 42° Northeast 509 586 27,400 -1,920 Descending FlightAware ADS-B
04:19PM 39.2988 -76.0554 42° Northeast 491 565 26,500 -1,680 Descending FlightAware ADS-B
04:20PM 39.3520 -75.9936 42° Northeast 479 551 25,600 -1,740 Descending FlightAware ADS-B
04:20PM 39.4025 -75.9343 42° Northeast 469 540 24,700 -1,740 Descending FlightAware ADS-B
04:21PM 39.4522 -75.8754 42° Northeast 455 524 23,800 -1,800 Descending FlightAware ADS-B
04:22PM 39.5052 -75.8128 42° Northeast 441 507 22,700 -1,860 Descending FlightAware ADS-B
04:22PM 39.5560 -75.7525 42° Northeast 427 491 21,700 -1,740 Descending FlightAware ADS-B
04:23PM 39.5987 -75.7017 43° Northeast 415 478 20,900 -1,620 Descending FlightAware ADS-B
04:23PM 39.6427 -75.6495 42° Northeast 405 466 20,100 -1,200 Descending FlightAware ADS-B
04:24PM 39.6893 -75.5939 43° Northeast 393 452 19,600 -1,500 Descending FlightAware ADS-B
04:24PM 39.7311 -75.5435 43° Northeast 391 450 18,500 -1,740 Descending FlightAware ADS-B
04:25PM 39.7772 -75.4878 43° Northeast 374 430 17,700 -1,860 Descending FlightAware ADS-B
04:25PM 39.8195 -75.4365 43° Northeast 374 430 16,400 -2,160 Descending FlightAware ADS-B
04:26PM 39.8585 -75.3895 43° Northeast 369 425 15,400 -2,040 Descending FlightAware ADS-B
04:27PM 39.9038 -75.3347 43° Northeast 366 421 14,100 -2,100 Descending FlightAware ADS-B
04:27PM 39.9412 -75.2891 43° Northeast 362 417 13,100 -2,040 Descending FlightAware ADS-B
04:28PM 39.9804 -75.2414 43° Northeast 358 412 12,000 -1,680 Descending FlightAware ADS-B
04:28PM 40.0200 -75.1934 43° Northeast 342 394 11,300 -960 Descending FlightAware ADS-B
04:29PM 40.0538 -75.1524 43° Northeast 320 368 11,000 -600 Descending FlightAware ADS-B
04:29PM 40.0852 -75.1140 43° Northeast 298 343 10,700 -600 Descending FlightAware ADS-B
04:30PM 40.1155 -75.0764 43° Northeast 279 321 10,400 -360 Descending FlightAware ADS-B
04:30PM 40.1400 -75.0467 43° Northeast 260 299 10,400 -120 Level FlightAware ADS-B
04:31PM 40.1668 -75.0140 43° Northeast 257 296 10,300 -540 Descending FlightAware ADS-B
04:31PM 40.1799 -74.9980 43° Northeast 257 296 10,000 -1,320 Descending FlightAware ADS-B
04:31PM 40.1954 -74.9789 43° Northeast 256 295 9,600 -1,260 Descending FlightAware ADS-B
04:31PM 40.2092 -74.9620 43° Northeast 255 293 9,300 -1,200 Descending FlightAware ADS-B
04:32PM 40.2175 -74.9519 43° Northeast 255 293 9,100 -1,200 Descending FlightAware ADS-B
04:32PM 40.2305 -74.9359 43° Northeast 255 293 8,800 -1,200 Descending FlightAware ADS-B
04:32PM 40.2441 -74.9190 43° Northeast 255 293 8,500 -1,200 Descending FlightAware ADS-B
04:32PM 40.2567 -74.9033 44° Northeast 255 293 8,200 -1,380 Descending FlightAware ADS-B
04:33PM 40.2691 -74.8859 47° Northeast 256 295 7,800 -1,500 Descending FlightAware ADS-B
04:33PM 40.2827 -74.8669 47° Northeast 255 293 7,400 -780 Descending FlightAware ADS-B
04:33PM 40.2944 -74.8502 47° Northeast 241 277 7,400  Level FlightAware ADS-B
04:33PM 40.3062 -74.8334 47° Northeast 236 272 7,400 -240 Level FlightAware ADS-B
04:34PM 40.3174 -74.8176 47° Northeast 236 272 7,300 -840 Descending FlightAware ADS-B
04:34PM 40.3290 -74.8013 47° Northeast 233 268 7,000 -1,200 Descending FlightAware ADS-B
04:34PM 40.3406 -74.7850 47° Northeast 233 268 6,700 -1,020 Descending FlightAware ADS-B
04:34PM 40.3517 -74.7695 47° Northeast 231 266 6,500 -780 Descending FlightAware ADS-B
04:35PM 40.3632 -74.7536 46° Northeast 228 262 6,300 -1,020 Descending FlightAware ADS-B
04:35PM 40.3742 -74.7382 47° Northeast 226 260 6,000 -960 Descending FlightAware ADS-B
04:35PM 40.3857 -74.7221 47° Northeast 221 254 5,800 -600 Descending FlightAware ADS-B
04:35PM 40.3953 -74.7084 47° Northeast 215 247 5,700 -600 Descending FlightAware ADS-B
04:36PM 40.4058 -74.6934 47° Northeast 210 242 5,500 -780 Descending FlightAware ADS-B
04:36PM 40.4157 -74.6793 47° Northeast 209 241 5,300 -780 Descending FlightAware ADS-B
04:36PM 40.4261 -74.6647 47° Northeast 206 237 5,100 -780 Descending FlightAware ADS-B
04:37PM 40.4359 -74.6513 46° Northeast 200 230 4,900 -840 Descending FlightAware ADS-B
04:37PM 40.4455 -74.6381 46° Northeast 199 229 4,700 -1,140 Descending FlightAware ADS-B
04:37PM 40.4493 -74.6317 52° Northeast 198 228 4,500 -1,200 Descending FlightAware ADS-B
04:37PM 40.4505 -74.6286 63° Northeast 197 227 4,500 -780 Level FlightAware ADS-B
04:37PM 40.4518 -74.6228 74° East 193 222 4,400 -600 Descending FlightAware ADS-B
04:37PM 40.4520 -74.6163 88° East 191 220 4,400  Level FlightAware ADS-B
04:37PM 40.4512 -74.6107 101° East 191 220 4,400  Level FlightAware ADS-B
04:37PM 40.4496 -74.6038 107° East 193 222 4,400  Level FlightAware ADS-B
04:37PM 40.4458 -74.5917 112° Southeast 194 223 4,400  Level FlightAware ADS-B
04:38PM 40.4437 -74.5877 125° Southeast 196 226 4,400  Level FlightAware ADS-B
04:38PM 40.4406 -74.5836 135° Southeast 199 229 4,400  Level FlightAware ADS-B
04:38PM 40.4378 -74.5809 144° Southeast 202 232 4,400  Level FlightAware ADS-B
04:38PM 40.4327 -74.5778 155° Southeast 208 239 4,400 -900 Level FlightAware ADS-B
04:38PM 40.4256 -74.5748 162° South 212 244 4,200 -1,620 Descending FlightAware ADS-B
04:38PM 40.4109 -74.5694 164° South 218 251 3,800 -1,320 Descending FlightAware ADS-B
04:38PM 40.4035 -74.5661 161° South 216 249 3,700 -1,140 Descending FlightAware ADS-B
04:38PM 40.4008 -74.5641 151° Southeast 214 246 3,600 -1,500 Descending FlightAware ADS-B
04:38PM 40.3970 -74.5604 143° Southeast 209 241 3,500 -1,140 Descending FlightAware ADS-B
04:39PM 40.3931 -74.5543 130° Southeast 204 235 3,400 -1,020 Descending FlightAware ADS-B
04:39PM 40.3901 -74.5483 123° Southeast 202 232 3,300 -1,140 Descending FlightAware ADS-B
04:39PM 40.3879 -74.5430 119° Southeast 200 230 3,200 -720 Descending FlightAware ADS-B
04:39PM 40.3866 -74.5385 111° Southeast 199 229 3,200 -780 Level FlightAware ADS-B
04:39PM 40.3858 -74.5344 104° East 199 229 3,100 -1,020 Descending FlightAware ADS-B
04:39PM 40.3844 -74.5242 100° East 196 226 3,000 -960 Descending FlightAware ADS-B
04:39PM 40.3824 -74.5046 98° East 192 221 2,700 -720 Descending FlightAware ADS-B
04:39PM 40.3830 -74.4949 85° East 190 219 2,700  Level FlightAware ADS-B
04:39PM 40.3840 -74.4902 74° East 183 211 2,700 -900 Level FlightAware ADS-B
04:40PM 40.3875 -74.4735 75° East 176 203 2,400 -600 Descending FlightAware ADS-B
04:40PM 40.3912 -74.4560 74° East 172 198 2,400  Level FlightAware ADS-B
04:40PM 40.3942 -74.4401 76° East 170 196 2,400  Level FlightAware ADS-B
04:41PM 40.4110 -74.4030 59° Northeast 170 196 2,400  Level FlightAware
04:41PM 40.4190 -74.3910 49° Northeast 163 188 2,400  Level FlightAware
04:41PM 40.4219 -74.3851 57° Northeast 171 197 2,400  Level FlightAware ADS-B
04:42PM 40.4393 -74.3555 52° Northeast 161 185 2,400  Level FlightAware ADS-B
04:42PM 40.4526 -74.3341 51° Northeast 161 185 2,400  Level FlightAware ADS-B
04:43PM 40.4657 -74.3133 50° Northeast 161 185 2,400  Level FlightAware ADS-B
04:44PM 40.4872 -74.2947 33° Northeast 161 185 2,400  Level FlightAware ADS-B
04:44PM 40.4986 -74.2869 27° Northeast 166 191 2,400  Level FlightAware ADS-B
04:45PM 40.5290 -74.2690 24° Northeast 167 192 2,400  Level FlightAware
04:45PM 40.5395 -74.2620 27° Northeast 166 191 2,400 -360 Level FlightAware ADS-B
04:45PM 40.5650 -74.2460 25° Northeast 161 185 2,100 -660 Descending FlightAware
04:46PM 40.5848 -74.2330 27° Northeast 166 191 1,700 -1,080 Descending FlightAware ADS-B
04:46PM 40.5958 -74.2261 25° Northeast 166 191 1,400 -1,080 Descending FlightAware ADS-B
04:47PM 40.6190 -74.2115 26° Northeast 165 190 800 -900 Descending FlightAware ADS-B
04:47PM 40.6272 -74.2064 25° Northeast 149 171 700 -840 Descending FlightAware ADS-B
04:47PM 40.6373 -74.2001 25° Northeast 146 168 400 -900 Descending FlightAware ADS-B
04:48PM 40.6523 -74.1902 27° Northeast 153 176 100 -780 Descending FlightAware ADS-B